sensor_id;sensor_type;location;lat;lon;timestamp;temperature;humidity
25280;DHT22;13225;47.804;12.116;2023-05-29T00:00:31;11.30;99.90
25280;DHT22;13225;47.804;12.116;2023-05-29T00:02:57;11.30;99.90
25280;DHT22;13225;47.804;12.116;2023-05-29T00:05:23;11.10;99.90
25280;DHT22;13225;47.804;12.116;2023-05-29T00:07:49;11.00;99.90
25280;DHT22;13225;47.804;12.116;2023-05-29T00:10:16;10.90;99.90
25280;DHT22;13225;47.804;12.116;2023-05-29T00:12:42;10.80;99.90
25280;DHT22;13225;47.804;12.116;2023-05-29T00:15:08;10.70;99.90
25280;DHT22;13225;47.804;12.116;2023-05-29T00:17:36;10.70;99.90
25280;DHT22;13225;47.804;12.116;2023-05-29T00:20:02;10.70;99.90
25280;DHT22;13225;47.804;12.116;2023-05-29T00:22:37;10.60;99.90
25280;DHT22;13225;47.804;12.116;2023-05-29T00:25:06;10.70;99.90
25280;DHT22;13225;47.804;12.116;2023-05-29T00:27:33;10.70;99.90
25280;DHT22;13225;47.804;12.116;2023-05-29T00:29:59;10.70;99.90
25280;DHT22;13225;47.804;12.116;2023-05-29T00:32:25;10.70;99.90
25280;DHT22;13225;47.804;12.116;2023-05-29T00:34:51;10.60;99.90
25280;DHT22;13225;47.804;12.116;2023-05-29T00:37:17;10.50;99.90
25280;DHT22;13225;47.804;12.116;2023-05-29T00:39:42;10.50;99.90
25280;DHT22;13225;47.804;12.116;2023-05-29T00:42:08;10.50;99.90
25280;DHT22;13225;47.804;12.116;2023-05-29T00:44:34;10.60;99.90
25280;DHT22;13225;47.804;12.116;2023-05-29T00:47:01;10.70;99.90
25280;DHT22;13225;47.804;12.116;2023-05-29T00:49:27;10.70;99.90
25280;DHT22;13225;47.804;12.116;2023-05-29T00:51:54;10.60;99.90
25280;DHT22;13225;47.804;12.116;2023-05-29T00:54:25;10.50;99.90
25280;DHT22;13225;47.804;12.116;2023-05-29T00:56:52;10.50;99.90
25280;DHT22;13225;47.804;12.116;2023-05-29T00:59:18;10.40;99.90
25280;DHT22;13225;47.804;12.116;2023-05-29T01:01:48;10.30;99.90
25280;DHT22;13225;47.804;12.116;2023-05-29T01:04:15;10.30;99.90
25280;DHT22;13225;47.804;12.116;2023-05-29T01:06:42;10.30;99.90
25280;DHT22;13225;47.804;12.116;2023-05-29T01:09:07;10.30;99.90
25280;DHT22;13225;47.804;12.116;2023-05-29T01:11:49;10.40;99.90
25280;DHT22;13225;47.804;12.116;2023-05-29T01:14:41;10.40;99.90
25280;DHT22;13225;47.804;12.116;2023-05-29T01:17:26;10.50;99.90
25280;DHT22;13225;47.804;12.116;2023-05-29T01:28:04;10.60;99.90
25280;DHT22;13225;47.804;12.116;2023-05-29T01:30:31;10.60;99.90
25280;DHT22;13225;47.804;12.116;2023-05-29T01:32:58;10.60;99.90
25280;DHT22;13225;47.804;12.116;2023-05-29T01:35:25;10.50;99.90
25280;DHT22;13225;47.804;12.116;2023-05-29T01:37:51;10.60;99.90
25280;DHT22;13225;47.804;12.116;2023-05-29T01:40:17;10.50;99.90
25280;DHT22;13225;47.804;12.116;2023-05-29T01:42:43;10.60;99.90
25280;DHT22;13225;47.804;12.116;2023-05-29T01:45:09;10.50;99.90
25280;DHT22;13225;47.804;12.116;2023-05-29T01:47:35;10.50;99.90
25280;DHT22;13225;47.804;12.116;2023-05-29T01:50:03;10.40;99.90
25280;DHT22;13225;47.804;12.116;2023-05-29T01:52:29;10.30;99.90
25280;DHT22;13225;47.804;12.116;2023-05-29T01:54:55;10.30;99.90
25280;DHT22;13225;47.804;12.116;2023-05-29T01:57:21;10.30;99.90
25280;DHT22;13225;47.804;12.116;2023-05-29T01:59:47;10.30;99.90
25280;DHT22;13225;47.804;12.116;2023-05-29T02:02:13;10.00;99.90
25280;DHT22;13225;47.804;12.116;2023-05-29T02:04:38;9.90;99.90
25280;DHT22;13225;47.804;12.116;2023-05-29T02:07:04;9.80;99.90
25280;DHT22;13225;47.804;12.116;2023-05-29T02:09:30;9.70;99.90
25280;DHT22;13225;47.804;12.116;2023-05-29T02:11:56;9.70;99.90
25280;DHT22;13225;47.804;12.116;2023-05-29T02:14:21;9.70;99.90
25280;DHT22;13225;47.804;12.116;2023-05-29T02:16:49;9.70;99.90
25280;DHT22;13225;47.804;12.116;2023-05-29T02:19:17;9.70;99.90
25280;DHT22;13225;47.804;12.116;2023-05-29T02:21:44;9.70;99.90
25280;DHT22;13225;47.804;12.116;2023-05-29T02:24:09;9.60;99.90
25280;DHT22;13225;47.804;12.116;2023-05-29T02:26:35;9.70;99.90
25280;DHT22;13225;47.804;12.116;2023-05-29T02:29:03;9.70;99.90
25280;DHT22;13225;47.804;12.116;2023-05-29T02:31:31;9.70;99.90
25280;DHT22;13225;47.804;12.116;2023-05-29T02:33:57;9.60;99.90
25280;DHT22;13225;47.804;12.116;2023-05-29T02:36:22;9.60;99.90
25280;DHT22;13225;47.804;12.116;2023-05-29T02:38:48;9.50;99.90
25280;DHT22;13225;47.804;12.116;2023-05-29T02:41:14;9.50;99.90
25280;DHT22;13225;47.804;12.116;2023-05-29T02:43:39;9.30;99.90
25280;DHT22;13225;47.804;12.116;2023-05-29T02:46:05;9.30;99.90
25280;DHT22;13225;47.804;12.116;2023-05-29T02:48:30;9.20;99.90
25280;DHT22;13225;47.804;12.116;2023-05-29T02:50:56;9.20;99.90
25280;DHT22;13225;47.804;12.116;2023-05-29T02:53:22;9.20;99.90
25280;DHT22;13225;47.804;12.116;2023-05-29T02:55:49;9.10;99.90
25280;DHT22;13225;47.804;12.116;2023-05-29T02:58:14;9.10;99.90
25280;DHT22;13225;47.804;12.116;2023-05-29T03:00:41;9.10;99.90
25280;DHT22;13225;47.804;12.116;2023-05-29T03:03:07;9.10;99.90
25280;DHT22;13225;47.804;12.116;2023-05-29T03:05:32;9.10;99.90
25280;DHT22;13225;47.804;12.116;2023-05-29T03:07:58;9.10;99.90
25280;DHT22;13225;47.804;12.116;2023-05-29T03:10:23;9.10;99.90
25280;DHT22;13225;47.804;12.116;2023-05-29T03:12:49;9.00;99.90
25280;DHT22;13225;47.804;12.116;2023-05-29T03:15:16;9.00;99.90
25280;DHT22;13225;47.804;12.116;2023-05-29T03:17:45;9.00;99.90
25280;DHT22;13225;47.804;12.116;2023-05-29T03:20:11;9.00;99.90
25280;DHT22;13225;47.804;12.116;2023-05-29T03:22:37;9.00;99.90
25280;DHT22;13225;47.804;12.116;2023-05-29T03:25:03;9.10;99.90
25280;DHT22;13225;47.804;12.116;2023-05-29T03:27:29;9.10;99.90
25280;DHT22;13225;47.804;12.116;2023-05-29T03:29:55;9.10;99.90
25280;DHT22;13225;47.804;12.116;2023-05-29T03:32:21;9.20;99.90
25280;DHT22;13225;47.804;12.116;2023-05-29T03:34:46;9.20;99.90
25280;DHT22;13225;47.804;12.116;2023-05-29T03:37:13;9.20;99.90
25280;DHT22;13225;47.804;12.116;2023-05-29T03:39:39;9.20;99.90
25280;DHT22;13225;47.804;12.116;2023-05-29T03:42:04;9.30;99.90
25280;DHT22;13225;47.804;12.116;2023-05-29T03:44:30;9.30;99.90
25280;DHT22;13225;47.804;12.116;2023-05-29T03:46:56;9.40;99.90
25280;DHT22;13225;47.804;12.116;2023-05-29T03:49:21;9.50;99.90
25280;DHT22;13225;47.804;12.116;2023-05-29T03:51:47;9.60;99.90
25280;DHT22;13225;47.804;12.116;2023-05-29T03:54:12;9.60;99.90
25280;DHT22;13225;47.804;12.116;2023-05-29T03:56:38;9.60;99.90
25280;DHT22;13225;47.804;12.116;2023-05-29T03:59:04;9.60;99.90
25280;DHT22;13225;47.804;12.116;2023-05-29T04:01:29;9.60;99.90
25280;DHT22;13225;47.804;12.116;2023-05-29T04:03:55;9.70;99.90
25280;DHT22;13225;47.804;12.116;2023-05-29T04:06:20;9.90;99.90
25280;DHT22;13225;47.804;12.116;2023-05-29T04:08:47;10.20;99.90
25280;DHT22;13225;47.804;12.116;2023-05-29T04:11:14;10.50;99.90
25280;DHT22;13225;47.804;12.116;2023-05-29T04:13:40;10.70;99.90
25280;DHT22;13225;47.804;12.116;2023-05-29T04:16:06;10.50;99.90
25280;DHT22;13225;47.804;12.116;2023-05-29T04:18:32;10.60;99.90
25280;DHT22;13225;47.804;12.116;2023-05-29T04:20:57;10.90;99.90
25280;DHT22;13225;47.804;12.116;2023-05-29T04:23:23;11.20;99.90
25280;DHT22;13225;47.804;12.116;2023-05-29T04:25:49;11.60;99.90
25280;DHT22;13225;47.804;12.116;2023-05-29T04:28:16;11.70;99.90
25280;DHT22;13225;47.804;12.116;2023-05-29T04:30:42;11.80;99.90
25280;DHT22;13225;47.804;12.116;2023-05-29T04:33:08;12.10;99.90
25280;DHT22;13225;47.804;12.116;2023-05-29T04:35:35;12.20;99.90
25280;DHT22;13225;47.804;12.116;2023-05-29T04:38:01;12.60;99.90
25280;DHT22;13225;47.804;12.116;2023-05-29T04:40:26;12.60;99.90
25280;DHT22;13225;47.804;12.116;2023-05-29T04:42:52;13.10;99.90
25280;DHT22;13225;47.804;12.116;2023-05-29T04:45:19;13.40;99.90
25280;DHT22;13225;47.804;12.116;2023-05-29T04:47:46;13.50;99.90
25280;DHT22;13225;47.804;12.116;2023-05-29T04:50:16;13.80;99.90
25280;DHT22;13225;47.804;12.116;2023-05-29T04:52:43;14.20;99.90
25280;DHT22;13225;47.804;12.116;2023-05-29T04:55:09;14.30;99.90
25280;DHT22;13225;47.804;12.116;2023-05-29T04:57:36;14.40;99.90
25280;DHT22;13225;47.804;12.116;2023-05-29T05:00:02;14.40;99.90
25280;DHT22;13225;47.804;12.116;2023-05-29T05:02:32;14.80;99.90
25280;DHT22;13225;47.804;12.116;2023-05-29T05:04:57;14.80;99.90
25280;DHT22;13225;47.804;12.116;2023-05-29T05:07:24;14.90;99.90
25280;DHT22;13225;47.804;12.116;2023-05-29T05:09:49;15.40;99.90
25280;DHT22;13225;47.804;12.116;2023-05-29T05:12:15;14.40;99.90
25280;DHT22;13225;47.804;12.116;2023-05-29T05:14:41;14.20;99.90
25280;DHT22;13225;47.804;12.116;2023-05-29T05:17:06;15.00;99.90
25280;DHT22;13225;47.804;12.116;2023-05-29T05:19:32;15.30;99.90
25280;DHT22;13225;47.804;12.116;2023-05-29T05:21:58;15.50;99.90
25280;DHT22;13225;47.804;12.116;2023-05-29T05:24:23;15.10;99.90
25280;DHT22;13225;47.804;12.116;2023-05-29T05:26:49;14.60;99.90
25280;DHT22;13225;47.804;12.116;2023-05-29T05:29:15;14.40;99.90
25280;DHT22;13225;47.804;12.116;2023-05-29T05:31:40;14.30;99.90
25280;DHT22;13225;47.804;12.116;2023-05-29T05:34:06;14.30;99.90
25280;DHT22;13225;47.804;12.116;2023-05-29T05:36:31;14.20;99.90
25280;DHT22;13225;47.804;12.116;2023-05-29T05:38:58;14.30;99.90
25280;DHT22;13225;47.804;12.116;2023-05-29T05:41:23;14.40;99.90
25280;DHT22;13225;47.804;12.116;2023-05-29T05:43:49;14.40;99.90
25280;DHT22;13225;47.804;12.116;2023-05-29T05:46:15;14.00;99.90
25280;DHT22;13225;47.804;12.116;2023-05-29T05:48:42;13.80;99.90
25280;DHT22;13225;47.804;12.116;2023-05-29T05:51:08;14.00;99.90
25280;DHT22;13225;47.804;12.116;2023-05-29T05:53:34;14.10;99.90
25280;DHT22;13225;47.804;12.116;2023-05-29T05:55:59;14.40;99.90
25280;DHT22;13225;47.804;12.116;2023-05-29T05:58:25;14.50;99.90
25280;DHT22;13225;47.804;12.116;2023-05-29T06:00:51;14.70;99.90
25280;DHT22;13225;47.804;12.116;2023-05-29T06:03:17;14.60;99.90
25280;DHT22;13225;47.804;12.116;2023-05-29T06:05:43;14.60;99.90
25280;DHT22;13225;47.804;12.116;2023-05-29T06:08:09;14.80;99.90
25280;DHT22;13225;47.804;12.116;2023-05-29T06:10:34;14.90;99.90
25280;DHT22;13225;47.804;12.116;2023-05-29T06:13:00;14.90;99.90
25280;DHT22;13225;47.804;12.116;2023-05-29T06:15:26;15.00;99.90
25280;DHT22;13225;47.804;12.116;2023-05-29T06:17:51;15.00;99.90
25280;DHT22;13225;47.804;12.116;2023-05-29T06:20:17;14.90;99.90
25280;DHT22;13225;47.804;12.116;2023-05-29T06:22:44;15.00;99.90
25280;DHT22;13225;47.804;12.116;2023-05-29T06:25:18;15.20;99.90
25280;DHT22;13225;47.804;12.116;2023-05-29T06:27:44;15.40;99.90
25280;DHT22;13225;47.804;12.116;2023-05-29T06:30:11;15.60;99.90
25280;DHT22;13225;47.804;12.116;2023-05-29T06:32:37;15.60;99.90
25280;DHT22;13225;47.804;12.116;2023-05-29T06:35:02;15.70;99.90
25280;DHT22;13225;47.804;12.116;2023-05-29T06:37:29;15.80;99.90
25280;DHT22;13225;47.804;12.116;2023-05-29T06:39:54;15.60;99.90
25280;DHT22;13225;47.804;12.116;2023-05-29T06:42:21;15.80;99.90
25280;DHT22;13225;47.804;12.116;2023-05-29T06:44:47;16.00;99.90
25280;DHT22;13225;47.804;12.116;2023-05-29T06:47:13;16.10;99.90
25280;DHT22;13225;47.804;12.116;2023-05-29T06:49:38;16.10;99.90
25280;DHT22;13225;47.804;12.116;2023-05-29T06:52:04;16.20;99.90
25280;DHT22;13225;47.804;12.116;2023-05-29T06:54:29;16.10;99.90
25280;DHT22;13225;47.804;12.116;2023-05-29T06:56:55;16.10;99.90
25280;DHT22;13225;47.804;12.116;2023-05-29T06:59:22;16.10;99.90
25280;DHT22;13225;47.804;12.116;2023-05-29T07:01:47;16.00;99.90
25280;DHT22;13225;47.804;12.116;2023-05-29T07:04:13;16.00;99.90
25280;DHT22;13225;47.804;12.116;2023-05-29T07:06:39;15.90;99.90
25280;DHT22;13225;47.804;12.116;2023-05-29T07:09:04;15.90;99.90
25280;DHT22;13225;47.804;12.116;2023-05-29T07:11:30;16.00;99.90
25280;DHT22;13225;47.804;12.116;2023-05-29T07:13:56;16.10;99.90
25280;DHT22;13225;47.804;12.116;2023-05-29T07:16:21;16.20;99.90
25280;DHT22;13225;47.804;12.116;2023-05-29T07:18:47;16.20;99.90
25280;DHT22;13225;47.804;12.116;2023-05-29T07:21:13;16.20;99.90
25280;DHT22;13225;47.804;12.116;2023-05-29T07:23:39;16.30;99.90
25280;DHT22;13225;47.804;12.116;2023-05-29T07:26:05;16.50;99.90
25280;DHT22;13225;47.804;12.116;2023-05-29T07:28:31;16.40;99.90
25280;DHT22;13225;47.804;12.116;2023-05-29T07:30:56;16.60;99.90
25280;DHT22;13225;47.804;12.116;2023-05-29T07:33:22;16.70;99.90
25280;DHT22;13225;47.804;12.116;2023-05-29T07:35:47;16.50;99.90
25280;DHT22;13225;47.804;12.116;2023-05-29T07:38:13;16.60;99.90
25280;DHT22;13225;47.804;12.116;2023-05-29T07:40:39;16.70;99.90
25280;DHT22;13225;47.804;12.116;2023-05-29T07:43:04;16.80;99.90
25280;DHT22;13225;47.804;12.116;2023-05-29T07:45:30;16.90;99.90
25280;DHT22;13225;47.804;12.116;2023-05-29T07:47:55;17.10;99.90
25280;DHT22;13225;47.804;12.116;2023-05-29T07:50:21;17.00;99.90
25280;DHT22;13225;47.804;12.116;2023-05-29T07:52:47;17.20;99.90
25280;DHT22;13225;47.804;12.116;2023-05-29T07:55:12;17.20;99.90
25280;DHT22;13225;47.804;12.116;2023-05-29T07:57:38;17.20;99.90
25280;DHT22;13225;47.804;12.116;2023-05-29T08:00:05;17.30;99.90
25280;DHT22;13225;47.804;12.116;2023-05-29T08:02:35;17.40;99.90
25280;DHT22;13225;47.804;12.116;2023-05-29T08:05:03;17.50;99.90
25280;DHT22;13225;47.804;12.116;2023-05-29T08:07:28;17.40;99.90
25280;DHT22;13225;47.804;12.116;2023-05-29T08:09:54;17.30;99.90
25280;DHT22;13225;47.804;12.116;2023-05-29T08:12:21;17.40;99.90
25280;DHT22;13225;47.804;12.116;2023-05-29T08:14:46;17.40;99.90
25280;DHT22;13225;47.804;12.116;2023-05-29T08:17:12;17.50;99.90
25280;DHT22;13225;47.804;12.116;2023-05-29T08:19:37;17.70;99.90
25280;DHT22;13225;47.804;12.116;2023-05-29T08:22:03;17.80;99.90
25280;DHT22;13225;47.804;12.116;2023-05-29T08:24:28;17.80;99.90
25280;DHT22;13225;47.804;12.116;2023-05-29T08:26:54;17.90;99.90
25280;DHT22;13225;47.804;12.116;2023-05-29T08:29:20;18.20;99.90
25280;DHT22;13225;47.804;12.116;2023-05-29T08:31:45;18.30;99.90
25280;DHT22;13225;47.804;12.116;2023-05-29T08:34:11;18.40;99.90
25280;DHT22;13225;47.804;12.116;2023-05-29T08:36:37;18.50;99.90
25280;DHT22;13225;47.804;12.116;2023-05-29T08:39:03;18.50;99.90
25280;DHT22;13225;47.804;12.116;2023-05-29T08:41:41;18.60;99.90
25280;DHT22;13225;47.804;12.116;2023-05-29T08:44:14;18.30;99.90
25280;DHT22;13225;47.804;12.116;2023-05-29T08:46:44;18.60;99.90
25280;DHT22;13225;47.804;12.116;2023-05-29T08:49:14;18.80;99.90
25280;DHT22;13225;47.804;12.116;2023-05-29T08:51:44;19.00;99.90
25280;DHT22;13225;47.804;12.116;2023-05-29T08:54:14;19.10;99.90
25280;DHT22;13225;47.804;12.116;2023-05-29T08:56:40;19.10;99.90
25280;DHT22;13225;47.804;12.116;2023-05-29T08:59:07;18.80;99.90
25280;DHT22;13225;47.804;12.116;2023-05-29T09:01:34;19.10;99.90
25280;DHT22;13225;47.804;12.116;2023-05-29T09:04:00;19.30;99.90
25280;DHT22;13225;47.804;12.116;2023-05-29T09:06:26;19.40;99.90
25280;DHT22;13225;47.804;12.116;2023-05-29T09:08:53;19.60;99.90
25280;DHT22;13225;47.804;12.116;2023-05-29T09:11:19;19.50;99.90
25280;DHT22;13225;47.804;12.116;2023-05-29T09:13:46;19.80;99.90
25280;DHT22;13225;47.804;12.116;2023-05-29T09:16:12;19.90;99.90
25280;DHT22;13225;47.804;12.116;2023-05-29T09:18:37;19.90;99.90
25280;DHT22;13225;47.804;12.116;2023-05-29T09:21:07;19.70;99.90
25280;DHT22;13225;47.804;12.116;2023-05-29T09:23:35;19.90;99.90
25280;DHT22;13225;47.804;12.116;2023-05-29T09:26:02;20.00;99.90
25280;DHT22;13225;47.804;12.116;2023-05-29T09:28:30;20.10;99.90
25280;DHT22;13225;47.804;12.116;2023-05-29T09:30:56;20.30;99.90
25280;DHT22;13225;47.804;12.116;2023-05-29T09:33:22;20.50;99.90
25280;DHT22;13225;47.804;12.116;2023-05-29T09:35:49;20.70;99.90
25280;DHT22;13225;47.804;12.116;2023-05-29T09:38:19;20.80;99.90
25280;DHT22;13225;47.804;12.116;2023-05-29T09:40:45;20.70;99.90
25280;DHT22;13225;47.804;12.116;2023-05-29T09:43:18;20.70;99.90
25280;DHT22;13225;47.804;12.116;2023-05-29T09:45:46;20.90;99.90
25280;DHT22;13225;47.804;12.116;2023-05-29T09:48:17;21.00;99.90
25280;DHT22;13225;47.804;12.116;2023-05-29T09:50:44;20.90;99.90
25280;DHT22;13225;47.804;12.116;2023-05-29T09:53:16;20.90;99.90
25280;DHT22;13225;47.804;12.116;2023-05-29T09:55:45;21.10;99.90
25280;DHT22;13225;47.804;12.116;2023-05-29T09:58:13;21.40;99.90
25280;DHT22;13225;47.804;12.116;2023-05-29T10:00:41;21.50;99.90
25280;DHT22;13225;47.804;12.116;2023-05-29T10:03:07;21.60;99.90
25280;DHT22;13225;47.804;12.116;2023-05-29T10:05:32;21.80;99.90
25280;DHT22;13225;47.804;12.116;2023-05-29T10:07:59;21.90;99.90
25280;DHT22;13225;47.804;12.116;2023-05-29T10:10:29;21.80;99.60
25280;DHT22;13225;47.804;12.116;2023-05-29T10:12:56;21.80;99.90
25280;DHT22;13225;47.804;12.116;2023-05-29T10:15:23;22.10;99.90
25280;DHT22;13225;47.804;12.116;2023-05-29T10:17:51;22.20;98.90
25280;DHT22;13225;47.804;12.116;2023-05-29T10:20:19;22.30;99.90
25280;DHT22;13225;47.804;12.116;2023-05-29T10:22:47;22.30;99.90
25280;DHT22;13225;47.804;12.116;2023-05-29T10:25:14;22.50;98.50
25280;DHT22;13225;47.804;12.116;2023-05-29T10:27:42;22.50;96.40
25280;DHT22;13225;47.804;12.116;2023-05-29T10:35:36;22.60;95.50
25280;DHT22;13225;47.804;12.116;2023-05-29T10:38:12;22.60;94.80
25280;DHT22;13225;47.804;12.116;2023-05-29T10:40:39;22.70;94.70
25280;DHT22;13225;47.804;12.116;2023-05-29T10:43:04;22.70;94.30
25280;DHT22;13225;47.804;12.116;2023-05-29T10:50:42;22.90;93.70
25280;DHT22;13225;47.804;12.116;2023-05-29T10:53:09;22.90;93.20
25280;DHT22;13225;47.804;12.116;2023-05-29T10:55:36;22.90;93.10
25280;DHT22;13225;47.804;12.116;2023-05-29T10:58:23;23.00;94.60
25280;DHT22;13225;47.804;12.116;2023-05-29T11:00:50;23.10;94.00
25280;DHT22;13225;47.804;12.116;2023-05-29T11:03:23;23.30;93.80
25280;DHT22;13225;47.804;12.116;2023-05-29T11:08:47;23.50;91.30
25280;DHT22;13225;47.804;12.116;2023-05-29T11:13:53;23.70;91.50
25280;DHT22;13225;47.804;12.116;2023-05-29T11:16:39;23.70;90.20
25280;DHT22;13225;47.804;12.116;2023-05-29T11:19:09;23.70;90.80
25280;DHT22;13225;47.804;12.116;2023-05-29T11:24:28;23.80;89.50
25280;DHT22;13225;47.804;12.116;2023-05-29T11:26:55;23.90;88.60
25280;DHT22;13225;47.804;12.116;2023-05-29T11:29:30;24.00;86.90
25280;DHT22;13225;47.804;12.116;2023-05-29T11:32:03;23.80;85.90
25280;DHT22;13225;47.804;12.116;2023-05-29T11:34:30;23.70;88.20
25280;DHT22;13225;47.804;12.116;2023-05-29T11:37:00;23.90;90.10
25280;DHT22;13225;47.804;12.116;2023-05-29T11:39:26;24.00;90.30
25280;DHT22;13225;47.804;12.116;2023-05-29T11:41:52;24.20;90.70
25280;DHT22;13225;47.804;12.116;2023-05-29T11:44:18;24.30;86.60
25280;DHT22;13225;47.804;12.116;2023-05-29T11:46:44;24.00;85.70
25280;DHT22;13225;47.804;12.116;2023-05-29T11:49:10;23.90;87.80
25280;DHT22;13225;47.804;12.116;2023-05-29T11:51:35;23.90;88.30
25280;DHT22;13225;47.804;12.116;2023-05-29T11:54:02;23.90;86.30
25280;DHT22;13225;47.804;12.116;2023-05-29T11:56:28;24.20;86.30
25280;DHT22;13225;47.804;12.116;2023-05-29T11:58:56;24.50;82.80
25280;DHT22;13225;47.804;12.116;2023-05-29T12:01:25;24.70;83.50
25280;DHT22;13225;47.804;12.116;2023-05-29T12:03:52;24.70;81.40
25280;DHT22;13225;47.804;12.116;2023-05-29T12:06:34;24.50;79.40
25280;DHT22;13225;47.804;12.116;2023-05-29T12:09:02;24.60;82.50
25280;DHT22;13225;47.804;12.116;2023-05-29T12:11:29;24.60;77.60
25280;DHT22;13225;47.804;12.116;2023-05-29T12:13:59;24.40;77.40
25280;DHT22;13225;47.804;12.116;2023-05-29T12:16:27;24.40;77.60
25280;DHT22;13225;47.804;12.116;2023-05-29T12:18:54;24.70;77.80
25280;DHT22;13225;47.804;12.116;2023-05-29T12:21:22;24.70;78.70
25280;DHT22;13225;47.804;12.116;2023-05-29T12:23:48;24.70;80.10
25280;DHT22;13225;47.804;12.116;2023-05-29T12:26:14;24.60;80.10
25280;DHT22;13225;47.804;12.116;2023-05-29T12:28:44;24.90;82.40
25280;DHT22;13225;47.804;12.116;2023-05-29T12:31:10;25.20;81.40
25280;DHT22;13225;47.804;12.116;2023-05-29T12:33:40;25.30;79.50
25280;DHT22;13225;47.804;12.116;2023-05-29T12:36:09;25.60;78.70
25280;DHT22;13225;47.804;12.116;2023-05-29T12:38:53;25.90;75.80
25280;DHT22;13225;47.804;12.116;2023-05-29T12:41:29;26.30;76.80
25280;DHT22;13225;47.804;12.116;2023-05-29T12:43:56;27.10;75.00
25280;DHT22;13225;47.804;12.116;2023-05-29T12:46:26;27.50;71.00
25280;DHT22;13225;47.804;12.116;2023-05-29T12:48:55;27.80;71.60
25280;DHT22;13225;47.804;12.116;2023-05-29T12:51:27;28.20;70.60
25280;DHT22;13225;47.804;12.116;2023-05-29T12:53:53;28.10;71.10
25280;DHT22;13225;47.804;12.116;2023-05-29T12:56:24;28.00;69.50
25280;DHT22;13225;47.804;12.116;2023-05-29T12:58:52;27.70;68.20
25280;DHT22;13225;47.804;12.116;2023-05-29T13:01:17;27.40;67.30
25280;DHT22;13225;47.804;12.116;2023-05-29T13:03:43;27.80;68.70
25280;DHT22;13225;47.804;12.116;2023-05-29T13:06:10;28.10;66.60
25280;DHT22;13225;47.804;12.116;2023-05-29T13:08:36;28.30;67.90
25280;DHT22;13225;47.804;12.116;2023-05-29T13:11:02;28.20;67.00
25280;DHT22;13225;47.804;12.116;2023-05-29T13:13:27;28.40;66.00
25280;DHT22;13225;47.804;12.116;2023-05-29T13:15:53;28.40;66.10
25280;DHT22;13225;47.804;12.116;2023-05-29T13:18:18;28.50;69.30
25280;DHT22;13225;47.804;12.116;2023-05-29T13:20:44;28.40;68.90
25280;DHT22;13225;47.804;12.116;2023-05-29T13:23:10;28.30;68.60
25280;DHT22;13225;47.804;12.116;2023-05-29T13:25:35;28.00;68.90
25280;DHT22;13225;47.804;12.116;2023-05-29T13:28:01;28.20;66.10
25280;DHT22;13225;47.804;12.116;2023-05-29T13:30:26;28.20;69.50
25280;DHT22;13225;47.804;12.116;2023-05-29T13:32:52;28.60;68.00
25280;DHT22;13225;47.804;12.116;2023-05-29T13:35:18;28.60;65.70
25280;DHT22;13225;47.804;12.116;2023-05-29T13:37:44;28.60;65.60
25280;DHT22;13225;47.804;12.116;2023-05-29T13:40:10;28.60;64.60
25280;DHT22;13225;47.804;12.116;2023-05-29T13:42:38;28.70;64.20
25280;DHT22;13225;47.804;12.116;2023-05-29T13:45:05;28.90;62.90
25280;DHT22;13225;47.804;12.116;2023-05-29T13:47:32;29.10;63.50
25280;DHT22;13225;47.804;12.116;2023-05-29T13:49:58;28.70;63.90
25280;DHT22;13225;47.804;12.116;2023-05-29T13:52:24;28.30;65.70
25280;DHT22;13225;47.804;12.116;2023-05-29T13:54:50;28.60;67.00
25280;DHT22;13225;47.804;12.116;2023-05-29T13:57:15;28.80;62.60
25280;DHT22;13225;47.804;12.116;2023-05-29T13:59:41;28.80;61.10
25280;DHT22;13225;47.804;12.116;2023-05-29T14:02:06;28.80;61.70
25280;DHT22;13225;47.804;12.116;2023-05-29T14:04:33;28.50;61.90
25280;DHT22;13225;47.804;12.116;2023-05-29T14:07:00;28.80;61.60
25280;DHT22;13225;47.804;12.116;2023-05-29T14:09:25;29.10;60.80
25280;DHT22;13225;47.804;12.116;2023-05-29T14:11:55;29.20;60.10
25280;DHT22;13225;47.804;12.116;2023-05-29T14:14:21;28.80;60.10
25280;DHT22;13225;47.804;12.116;2023-05-29T14:16:47;28.80;60.60
25280;DHT22;13225;47.804;12.116;2023-05-29T14:19:13;28.50;59.80
25280;DHT22;13225;47.804;12.116;2023-05-29T14:21:38;28.70;60.70
25280;DHT22;13225;47.804;12.116;2023-05-29T14:24:04;28.70;61.10
25280;DHT22;13225;47.804;12.116;2023-05-29T14:26:29;28.80;62.30
25280;DHT22;13225;47.804;12.116;2023-05-29T14:28:55;29.10;62.60
25280;DHT22;13225;47.804;12.116;2023-05-29T14:31:21;29.10;62.30
25280;DHT22;13225;47.804;12.116;2023-05-29T14:33:47;29.30;61.10
25280;DHT22;13225;47.804;12.116;2023-05-29T14:36:12;29.20;60.50
25280;DHT22;13225;47.804;12.116;2023-05-29T14:38:38;29.20;61.10
25280;DHT22;13225;47.804;12.116;2023-05-29T14:41:03;29.10;60.30
25280;DHT22;13225;47.804;12.116;2023-05-29T14:43:29;29.70;59.50
25280;DHT22;13225;47.804;12.116;2023-05-29T14:45:55;29.50;60.80
25280;DHT22;13225;47.804;12.116;2023-05-29T14:48:21;29.10;59.80
25280;DHT22;13225;47.804;12.116;2023-05-29T14:50:46;28.50;60.70
25280;DHT22;13225;47.804;12.116;2023-05-29T14:53:12;28.40;61.70
25280;DHT22;13225;47.804;12.116;2023-05-29T14:55:37;28.70;60.90
25280;DHT22;13225;47.804;12.116;2023-05-29T14:58:04;28.90;61.30
25280;DHT22;13225;47.804;12.116;2023-05-29T15:00:30;29.10;60.40
25280;DHT22;13225;47.804;12.116;2023-05-29T15:02:56;28.80;59.80
25280;DHT22;13225;47.804;12.116;2023-05-29T15:05:27;28.60;60.10
25280;DHT22;13225;47.804;12.116;2023-05-29T15:07:53;28.60;60.60
25280;DHT22;13225;47.804;12.116;2023-05-29T15:10:25;28.60;60.40
25280;DHT22;13225;47.804;12.116;2023-05-29T15:12:52;28.70;61.10
25280;DHT22;13225;47.804;12.116;2023-05-29T15:15:26;28.70;61.40
25280;DHT22;13225;47.804;12.116;2023-05-29T15:17:52;28.70;62.10
25280;DHT22;13225;47.804;12.116;2023-05-29T15:20:25;28.80;60.90
25280;DHT22;13225;47.804;12.116;2023-05-29T15:22:51;28.70;60.50
25280;DHT22;13225;47.804;12.116;2023-05-29T15:25:18;28.50;60.70
25280;DHT22;13225;47.804;12.116;2023-05-29T15:27:44;28.50;60.50
25280;DHT22;13225;47.804;12.116;2023-05-29T15:30:14;28.50;59.40
25280;DHT22;13225;47.804;12.116;2023-05-29T15:32:41;27.80;59.20
25280;DHT22;13225;47.804;12.116;2023-05-29T15:35:11;27.40;60.30
25280;DHT22;13225;47.804;12.116;2023-05-29T15:37:38;26.80;62.00
25280;DHT22;13225;47.804;12.116;2023-05-29T15:40:06;26.20;63.30
25280;DHT22;13225;47.804;12.116;2023-05-29T15:42:32;26.30;64.50